createdAt,value
2023-11-27T00:00:37.471Z,31.95
2023-11-27T00:03:07.139Z,34.90
2023-11-27T00:05:33.741Z,31.85
2023-11-27T00:08:00.553Z,34.53
2023-11-27T00:10:27.142Z,27.65
2023-11-27T00:12:56.469Z,29.35
2023-11-27T00:15:23.224Z,31.52
2023-11-27T00:17:50.121Z,30.65
2023-11-27T00:20:17.184Z,28.55
2023-11-27T00:22:45.195Z,33.88
2023-11-27T00:25:12.034Z,31.48
2023-11-27T00:27:39.153Z,30.23
2023-11-27T00:30:08.496Z,29.35
2023-11-27T00:32:37.729Z,30.10
2023-11-27T00:35:04.320Z,27.80
2023-11-27T00:37:30.857Z,33.83
2023-11-27T00:39:57.422Z,28.38
2023-11-27T00:42:24.793Z,29.48
2023-11-27T00:44:51.424Z,27.52
2023-11-27T00:47:18.700Z,23.20
2023-11-27T00:49:45.603Z,31.88
2023-11-27T00:52:12.344Z,31.38
2023-11-27T00:54:39.191Z,27.65
2023-11-27T00:57:06.026Z,27.25
2023-11-27T00:59:32.931Z,21.55
2023-11-27T01:04:55.115Z,24.25
2023-11-27T01:07:25.309Z,28.55
2023-11-27T01:09:53.142Z,23.92
2023-11-27T01:12:19.857Z,26.02
2023-11-27T01:14:46.731Z,30.27
2023-11-27T01:17:14.536Z,31.02
2023-11-27T01:19:41.336Z,28.38
2023-11-27T01:22:09.463Z,29.45
2023-11-27T01:24:36.829Z,33.38
2023-11-27T01:27:03.415Z,31.60
2023-11-27T01:29:29.967Z,28.92
2023-11-27T01:31:57.038Z,30.83
2023-11-27T01:34:23.847Z,30.15
2023-11-27T01:36:51.204Z,38.75
2023-11-27T01:39:18.915Z,31.60
2023-11-27T01:41:45.426Z,31.13
2023-11-27T01:44:12.042Z,35.38
2023-11-27T01:46:44.690Z,32.75
2023-11-27T01:49:15.636Z,39.53
2023-11-27T01:51:43.253Z,34.20
2023-11-27T01:54:10.534Z,39.45
2023-11-27T01:56:40.624Z,35.38
2023-11-27T01:59:07.890Z,40.47
2023-11-27T02:01:36.240Z,40.95
2023-11-27T02:04:03.935Z,40.22
2023-11-27T02:06:30.552Z,41.28
2023-11-27T02:08:57.707Z,43.72
2023-11-27T02:11:26.637Z,40.00
2023-11-27T02:13:53.224Z,44.40
2023-11-27T02:16:19.792Z,45.97
2023-11-27T02:18:46.398Z,42.42
2023-11-27T02:21:14.989Z,46.38
2023-11-27T02:23:42.746Z,51.72
2023-11-27T02:26:09.589Z,43.42
2023-11-27T02:28:48.074Z,46.20
2023-11-27T02:31:15.647Z,49.97
2023-11-27T02:33:44.580Z,45.63
2023-11-27T02:36:11.813Z,43.67
2023-11-27T02:38:39.762Z,44.03
2023-11-27T02:41:06.695Z,55.63
2023-11-27T02:43:33.541Z,50.10
2023-11-27T02:46:00.448Z,48.67
2023-11-27T02:48:27.188Z,44.03
2023-11-27T02:50:54.488Z,45.92
2023-11-27T02:53:21.185Z,46.53
2023-11-27T02:55:47.685Z,50.80
2023-11-27T02:58:14.318Z,54.58
2023-11-27T03:00:40.917Z,43.42
2023-11-27T03:03:07.521Z,48.55
2023-11-27T03:05:34.265Z,45.97
2023-11-27T03:08:00.710Z,50.58
2023-11-27T03:10:27.225Z,50.53
2023-11-27T03:12:53.757Z,45.60
2023-11-27T03:15:21.576Z,46.15
2023-11-27T03:17:48.349Z,46.65
2023-11-27T03:20:14.891Z,49.13
2023-11-27T03:22:41.412Z,41.33
2023-11-27T03:25:08.367Z,41.43
2023-11-27T03:27:34.944Z,47.47
2023-11-27T03:30:04.784Z,42.17
2023-11-27T03:32:32.515Z,36.55
2023-11-27T03:34:59.195Z,40.63
2023-11-27T03:37:25.729Z,39.13
2023-11-27T03:39:52.280Z,39.83
2023-11-27T03:42:18.660Z,36.53
2023-11-27T03:44:45.228Z,32.60
2023-11-27T03:47:11.679Z,32.08
2023-11-27T03:49:38.377Z,33.40
2023-11-27T03:52:05.208Z,31.33
2023-11-27T03:54:31.859Z,33.42
2023-11-27T03:56:58.247Z,31.75
2023-11-27T03:59:25.001Z,34.28
2023-11-27T04:01:51.816Z,33.35
2023-11-27T04:04:18.764Z,32.05
2023-11-27T04:06:46.625Z,29.25
2023-11-27T04:09:14.628Z,28.23
2023-11-27T04:11:41.169Z,31.38
2023-11-27T04:14:07.909Z,29.20
2023-11-27T04:16:34.696Z,28.50
2023-11-27T04:19:01.318Z,30.13
2023-11-27T04:21:27.740Z,30.05
2023-11-27T04:23:54.183Z,28.38
2023-11-27T04:26:22.924Z,28.33
2023-11-27T04:28:50.249Z,27.90
2023-11-27T04:31:16.838Z,27.77
2023-11-27T04:33:43.405Z,24.02
2023-11-27T04:36:10.229Z,29.42
2023-11-27T04:38:37.448Z,30.37
2023-11-27T04:41:04.025Z,27.45
2023-11-27T04:43:30.476Z,27.88
2023-11-27T04:45:56.988Z,29.42
2023-11-27T04:48:24.207Z,28.40
2023-11-27T04:50:50.970Z,26.60
2023-11-27T04:53:17.530Z,26.52
2023-11-27T04:55:44.160Z,33.85
2023-11-27T04:58:10.879Z,27.20
2023-11-27T05:00:37.885Z,21.40
2023-11-27T05:03:04.644Z,29.05
2023-11-27T05:05:31.386Z,25.35
2023-11-27T05:07:57.997Z,26.48
2023-11-27T05:10:24.682Z,27.15
2023-11-27T05:12:51.408Z,27.67
2023-11-27T05:15:18.719Z,24.63
2023-11-27T05:17:46.747Z,23.15
2023-11-27T05:20:13.708Z,25.63
2023-11-27T05:22:40.355Z,28.88
2023-11-27T05:25:07.129Z,28.25
2023-11-27T05:27:33.614Z,25.42
2023-11-27T05:30:00.225Z,24.27
2023-11-27T05:32:26.841Z,27.33
2023-11-27T05:34:53.733Z,25.17
2023-11-27T05:37:20.324Z,24.95
2023-11-27T05:39:46.910Z,31.23
2023-11-27T05:42:13.581Z,28.17
2023-11-27T05:44:40.667Z,27.77
2023-11-27T05:47:07.184Z,30.08
2023-11-27T05:49:34.737Z,29.08
2023-11-27T05:52:01.439Z,29.25
2023-11-27T05:54:28.605Z,28.40
2023-11-27T05:56:55.602Z,25.35
2023-11-27T05:59:22.266Z,31.88
2023-11-27T06:01:49.084Z,28.83
2023-11-27T06:04:16.022Z,32.10
2023-11-27T06:06:42.555Z,31.23
2023-11-27T06:09:09.823Z,32.15
2023-11-27T06:11:36.552Z,34.10
2023-11-27T06:14:04.394Z,30.00
2023-11-27T06:16:30.902Z,32.83
2023-11-27T06:18:57.496Z,35.60
2023-11-27T06:21:24.071Z,34.95
2023-11-27T06:23:52.843Z,36.53
2023-11-27T06:26:19.576Z,30.95
2023-11-27T06:28:46.374Z,34.72
2023-11-27T06:31:13.033Z,35.83
2023-11-27T06:33:39.739Z,34.05
2023-11-27T06:36:06.850Z,38.47
2023-11-27T06:38:33.234Z,34.63
2023-11-27T06:40:59.895Z,35.42
2023-11-27T06:43:26.526Z,39.08
2023-11-27T06:45:55.291Z,36.75
2023-11-27T06:48:21.918Z,37.22
2023-11-27T06:50:48.654Z,38.58
2023-11-27T06:53:15.228Z,38.67
2023-11-27T06:55:41.689Z,45.28
2023-11-27T06:58:09.184Z,45.00
2023-11-27T07:00:35.720Z,42.08
2023-11-27T07:03:02.209Z,46.40
2023-11-27T07:05:28.703Z,45.15
2023-11-27T07:07:55.176Z,51.65
2023-11-27T07:10:21.641Z,45.38
2023-11-27T07:12:48.132Z,48.10
2023-11-27T07:15:14.705Z,54.05
2023-11-27T07:17:41.283Z,52.38
2023-11-27T07:20:08.128Z,52.90
2023-11-27T07:22:34.822Z,50.10
2023-11-27T07:25:01.341Z,57.38
2023-11-27T07:27:29.783Z,50.50
2023-11-27T07:29:56.295Z,52.45
2023-11-27T07:32:22.974Z,48.42
2023-11-27T07:34:49.493Z,46.85
2023-11-27T07:37:16.295Z,44.70
2023-11-27T07:39:44.006Z,48.25
2023-11-27T07:42:10.513Z,42.63
2023-11-27T07:44:37.438Z,38.35
2023-11-27T07:47:04.246Z,45.03
2023-11-27T07:49:30.914Z,48.03
2023-11-27T07:51:59.471Z,37.00
2023-11-27T07:54:26.691Z,42.33
2023-11-27T07:56:54.667Z,41.13
2023-11-27T07:59:21.183Z,43.58
2023-11-27T08:01:47.711Z,36.30
2023-11-27T08:04:14.255Z,35.70
2023-11-27T08:06:40.862Z,44.03
2023-11-27T08:09:08.671Z,41.05
2023-11-27T08:11:35.664Z,39.30
2023-11-27T08:14:02.237Z,35.67
2023-11-27T08:16:28.911Z,35.75
2023-11-27T08:18:55.378Z,36.20
2023-11-27T08:21:21.957Z,33.30
2023-11-27T08:23:48.947Z,32.85
2023-11-27T08:26:16.256Z,32.28
2023-11-27T08:28:42.755Z,30.88
2023-11-27T08:31:10.395Z,27.92
2023-11-27T08:33:37.324Z,33.53
2023-11-27T08:36:04.743Z,33.00
2023-11-27T08:38:34.418Z,32.05
2023-11-27T08:41:00.874Z,33.10
2023-11-27T08:43:30.185Z,32.10
2023-11-27T08:45:56.751Z,32.13
2023-11-27T08:48:23.220Z,27.20
2023-11-27T08:50:49.759Z,30.70
2023-11-27T08:53:16.108Z,29.75
2023-11-27T08:55:42.635Z,27.50
2023-11-27T08:58:10.405Z,26.23
2023-11-27T09:00:37.337Z,26.55
2023-11-27T09:03:04.315Z,28.33
2023-11-27T09:05:35.128Z,27.17
2023-11-27T09:08:08.082Z,31.63
2023-11-27T09:10:36.548Z,24.50
2023-11-27T09:13:05.479Z,25.45
2023-11-27T09:15:32.509Z,28.35
2023-11-27T09:18:00.333Z,24.75
2023-11-27T09:20:26.982Z,26.65
2023-11-27T09:22:53.899Z,23.60
2023-11-27T09:25:21.039Z,25.55
2023-11-27T09:27:47.595Z,22.92
2023-11-27T09:30:14.187Z,23.08
2023-11-27T09:32:41.053Z,25.85
2023-11-27T09:35:10.074Z,24.50
2023-11-27T09:37:37.809Z,26.35
2023-11-27T09:40:06.395Z,27.20
2023-11-27T09:42:46.603Z,30.10
2023-11-27T09:45:17.781Z,27.27
2023-11-27T09:47:46.404Z,26.02
2023-11-27T09:50:14.109Z,26.75
2023-11-27T09:52:43.529Z,30.42
2023-11-27T09:55:11.451Z,27.70
2023-11-27T09:57:40.439Z,32.55
2023-11-27T10:00:09.770Z,29.60
2023-11-27T10:02:36.740Z,29.63
2023-11-27T10:05:06.100Z,30.67
2023-11-27T10:07:38.581Z,27.92
2023-11-27T10:10:08.972Z,31.92
2023-11-27T10:12:39.925Z,29.42
2023-11-27T10:15:12.668Z,32.22
2023-11-27T10:17:43.073Z,29.98
2023-11-27T10:20:13.812Z,29.95
2023-11-27T10:22:43.754Z,28.13
2023-11-27T10:25:15.119Z,31.33
2023-11-27T10:27:44.801Z,28.38
2023-11-27T10:30:21.500Z,29.30
2023-11-27T10:32:48.776Z,30.38
2023-11-27T10:35:16.841Z,31.33
2023-11-27T10:37:43.849Z,29.85
2023-11-27T10:40:17.071Z,29.98
2023-11-27T10:42:46.324Z,25.88
2023-11-27T10:45:15.698Z,28.73
2023-11-27T10:47:44.675Z,28.58
2023-11-27T10:50:13.913Z,27.85
2023-11-27T10:52:42.081Z,28.50
2023-11-27T10:55:10.458Z,28.38
2023-11-27T10:57:39.001Z,31.73
2023-11-27T11:00:06.281Z,30.40
2023-11-27T11:02:34.897Z,33.65
2023-11-27T11:05:03.776Z,27.55
2023-11-27T11:07:34.620Z,26.40
2023-11-27T11:10:06.752Z,27.42
2023-11-27T11:12:33.792Z,29.60
2023-11-27T11:15:01.091Z,30.77
2023-11-27T11:17:46.224Z,28.42
2023-11-27T11:20:15.361Z,30.23
2023-11-27T11:22:41.842Z,26.42
2023-11-27T11:25:29.591Z,29.85
2023-11-27T11:28:07.021Z,29.92
2023-11-27T11:30:35.976Z,29.83
2023-11-27T11:33:09.502Z,27.98
2023-11-27T11:35:38.002Z,28.42
2023-11-27T11:38:18.015Z,29.33
2023-11-27T11:40:48.948Z,27.90
2023-11-27T11:43:17.182Z,28.50
2023-11-27T11:45:44.576Z,31.08
2023-11-27T11:48:15.649Z,31.23
2023-11-27T11:50:42.749Z,29.10
2023-11-27T11:53:15.580Z,28.55
2023-11-27T11:55:42.221Z,33.28
2023-11-27T11:58:21.158Z,30.48
2023-11-27T12:00:48.645Z,31.13
2023-11-27T12:03:20.681Z,35.63
2023-11-27T12:05:54.726Z,30.88
2023-11-27T12:08:24.927Z,33.40
2023-11-27T12:10:52.919Z,34.63
2023-11-27T12:13:24.671Z,32.90
2023-11-27T12:15:52.479Z,33.70
2023-11-27T12:18:21.155Z,36.15
2023-11-27T12:20:51.386Z,33.58
2023-11-27T12:23:19.230Z,42.75
2023-11-27T12:25:45.964Z,33.88
2023-11-27T12:28:13.033Z,35.28
2023-11-27T12:30:40.072Z,34.15
2023-11-27T12:33:07.884Z,29.67
2023-11-27T12:35:34.955Z,47.88
2023-11-27T12:38:06.042Z,34.65
2023-11-27T12:40:35.563Z,31.10
2023-11-27T12:43:06.007Z,31.52
2023-11-27T12:45:33.462Z,32.60
2023-11-27T12:48:00.086Z,37.78
2023-11-27T12:50:30.404Z,32.53
2023-11-27T12:53:08.392Z,44.53
2023-11-27T12:55:38.573Z,32.03
2023-11-27T12:58:05.293Z,35.05
2023-11-27T13:00:34.808Z,35.30
2023-11-27T13:03:05.139Z,33.22
2023-11-27T13:05:32.330Z,32.97
2023-11-27T13:08:00.873Z,30.42
2023-11-27T13:10:27.996Z,30.65
2023-11-27T13:12:56.059Z,35.65
2023-11-27T13:15:26.588Z,35.03
2023-11-27T13:18:00.783Z,33.80
2023-11-27T13:20:28.387Z,34.60
2023-11-27T13:22:55.268Z,44.28
2023-11-27T13:25:35.894Z,32.13
2023-11-27T13:28:03.608Z,35.15
2023-11-27T13:30:30.419Z,32.53
2023-11-27T13:33:00.229Z,34.22
2023-11-27T13:35:33.404Z,35.15
2023-11-27T13:38:04.193Z,34.22
2023-11-27T13:40:36.545Z,36.20
2023-11-27T13:43:09.373Z,34.25
2023-11-27T13:45:36.618Z,33.90
2023-11-27T13:48:05.071Z,35.75
2023-11-27T13:50:38.220Z,33.70
2023-11-27T13:53:06.650Z,33.10
2023-11-27T13:55:36.707Z,35.53
2023-11-27T13:58:07.892Z,37.10
2023-11-27T14:00:35.449Z,39.45
2023-11-27T14:03:04.095Z,39.97
2023-11-27T14:05:38.441Z,37.10
2023-11-27T14:08:11.093Z,39.10
2023-11-27T14:10:55.749Z,40.38
2023-11-27T14:13:23.004Z,39.80
2023-11-27T14:15:49.964Z,39.67
2023-11-27T14:18:23.043Z,35.38
2023-11-27T14:21:09.071Z,38.28
2023-11-27T14:23:41.527Z,40.55
2023-11-27T14:26:11.354Z,35.63
2023-11-27T14:28:44.704Z,41.75
2023-11-27T14:31:11.755Z,40.33
2023-11-27T14:33:38.600Z,38.10
2023-11-27T14:36:05.281Z,39.75
2023-11-27T14:38:31.722Z,42.15
2023-11-27T14:40:58.701Z,44.95
2023-11-27T14:43:30.497Z,44.17
2023-11-27T14:45:58.184Z,41.92
2023-11-27T14:48:31.670Z,53.88
2023-11-27T14:50:58.414Z,65.90
2023-11-27T14:53:24.787Z,53.55
2023-11-27T14:55:54.318Z,50.63
2023-11-27T14:58:24.824Z,46.63
2023-11-27T15:00:53.238Z,60.55
2023-11-27T15:03:20.919Z,61.15
2023-11-27T15:05:49.680Z,56.08
2023-11-27T15:08:16.714Z,51.90
2023-11-27T15:10:44.434Z,53.88
2023-11-27T15:13:12.748Z,66.78
2023-11-27T15:15:39.292Z,62.22
2023-11-27T15:18:07.114Z,54.28
2023-11-27T15:20:36.281Z,57.67
2023-11-27T15:23:04.346Z,68.35
2023-11-27T15:25:32.769Z,56.63
2023-11-27T15:27:59.390Z,59.67
2023-11-27T15:30:26.107Z,44.90
2023-11-27T15:32:52.718Z,48.63
2023-11-27T15:35:20.986Z,64.10
2023-11-27T15:37:50.591Z,49.28
2023-11-27T15:40:21.401Z,49.40
2023-11-27T15:42:48.508Z,56.13
2023-11-27T15:45:16.748Z,51.88
2023-11-27T15:47:43.437Z,54.42
2023-11-27T15:50:14.795Z,56.58
2023-11-27T15:52:42.043Z,52.75
2023-11-27T15:55:10.225Z,58.47
2023-11-27T15:57:36.872Z,55.85
2023-11-27T16:00:04.716Z,56.65
2023-11-27T16:02:31.968Z,64.87
2023-11-27T16:04:58.986Z,66.80
2023-11-27T16:07:25.534Z,70.53
2023-11-27T16:09:52.217Z,59.00
2023-11-27T16:12:18.838Z,66.43
2023-11-27T16:14:46.422Z,56.77
2023-11-27T16:17:16.441Z,60.63
2023-11-27T16:19:43.505Z,54.10
2023-11-27T16:22:11.311Z,60.22
2023-11-27T16:24:39.715Z,78.65
2023-11-27T16:27:07.075Z,52.50
2023-11-27T16:29:35.067Z,59.67
2023-11-27T16:32:02.336Z,56.33
2023-11-27T16:34:32.930Z,47.53
2023-11-27T16:36:59.405Z,66.18
2023-11-27T16:39:26.390Z,58.90
2023-11-27T16:41:53.107Z,55.08
2023-11-27T16:44:19.964Z,42.55
2023-11-27T16:46:46.633Z,37.60
2023-11-27T16:49:13.811Z,37.38
2023-11-27T16:51:41.075Z,24.10
2023-11-27T16:54:11.784Z,13.88
2023-11-27T16:56:38.790Z,23.02
2023-11-27T16:59:05.426Z,21.30
2023-11-27T17:01:34.458Z,18.17
2023-11-27T17:04:01.278Z,21.30
2023-11-27T17:06:29.238Z,23.08
2023-11-27T17:08:56.580Z,12.38
2023-11-27T17:11:23.228Z,12.68
2023-11-27T17:13:50.511Z,18.95
2023-11-27T17:16:17.902Z,14.88
2023-11-27T17:18:44.674Z,22.75
2023-11-27T17:21:11.238Z,22.05
2023-11-27T17:23:38.950Z,19.25
2023-11-27T17:26:06.924Z,33.10
2023-11-27T17:28:33.321Z,22.42
2023-11-27T17:30:59.706Z,21.20
2023-11-27T17:33:26.222Z,22.75
2023-11-27T17:35:52.920Z,26.05
2023-11-27T17:38:19.516Z,20.75
2023-11-27T17:40:45.973Z,24.17
2023-11-27T17:43:17.557Z,17.52
2023-11-27T17:45:47.220Z,19.95
2023-11-27T17:48:17.216Z,18.08
2023-11-27T17:50:44.372Z,22.77
2023-11-27T17:53:10.984Z,18.08
2023-11-27T17:55:45.548Z,20.60
2023-11-27T17:58:18.902Z,20.52
2023-11-27T18:00:48.026Z,27.38
2023-11-27T18:03:15.486Z,27.27
2023-11-27T18:05:42.187Z,19.58
2023-11-27T18:08:13.006Z,18.20
2023-11-27T18:10:39.562Z,21.05
2023-11-27T18:13:06.864Z,23.40
2023-11-27T18:15:33.826Z,24.63
2023-11-27T18:18:01.376Z,12.75
2023-11-27T18:20:29.118Z,11.77
2023-11-27T18:22:55.613Z,21.23
2023-11-27T18:25:24.643Z,18.35
2023-11-27T18:28:00.835Z,16.48
2023-11-27T18:30:28.563Z,22.50
2023-11-27T18:32:55.795Z,25.52
2023-11-27T18:35:22.693Z,21.48
2023-11-27T18:37:50.247Z,20.10
2023-11-27T18:40:19.129Z,16.00
2023-11-27T18:42:50.057Z,18.27
2023-11-27T18:45:20.369Z,20.20
2023-11-27T18:47:47.596Z,19.60
2023-11-27T18:50:14.197Z,19.55
2023-11-27T18:52:41.756Z,16.80
2023-11-27T18:55:08.528Z,20.17
2023-11-27T18:57:37.000Z,16.67
2023-11-27T19:00:06.016Z,14.93
2023-11-27T19:02:36.069Z,20.10
2023-11-27T19:05:02.733Z,20.37
2023-11-27T19:07:29.427Z,12.18
2023-11-27T19:09:56.420Z,15.43
2023-11-27T19:12:23.550Z,17.90
2023-11-27T19:14:53.146Z,15.93
2023-11-27T19:17:21.110Z,16.13
2023-11-27T19:19:47.905Z,11.35
2023-11-27T19:22:14.657Z,11.95
2023-11-27T19:24:41.263Z,9.05
2023-11-27T19:27:08.604Z,14.63
2023-11-27T19:29:36.237Z,11.70
2023-11-27T19:32:02.954Z,13.35
2023-11-27T19:34:32.732Z,12.90
2023-11-27T19:36:59.516Z,12.00
2023-11-27T19:39:26.850Z,17.70
2023-11-27T19:41:53.774Z,9.03
2023-11-27T19:44:21.996Z,11.23
2023-11-27T19:46:51.806Z,10.93
2023-11-27T19:49:20.584Z,11.48
2023-11-27T19:51:48.161Z,15.73
2023-11-27T19:54:19.537Z,23.03
2023-11-27T19:56:46.580Z,20.40
2023-11-27T19:59:13.182Z,28.95
2023-11-27T20:01:40.390Z,15.98
2023-11-27T20:04:06.896Z,11.60
2023-11-27T20:06:33.320Z,14.33
2023-11-27T20:09:00.261Z,12.05
2023-11-27T20:11:26.748Z,14.20
2023-11-27T20:13:53.923Z,11.93
2023-11-27T20:16:21.225Z,11.25
2023-11-27T20:18:47.905Z,20.77
2023-11-27T20:21:16.368Z,24.85
2023-11-27T20:23:43.329Z,14.30
2023-11-27T20:26:09.806Z,17.63
2023-11-27T20:28:36.446Z,23.17
2023-11-27T20:31:03.344Z,21.43
2023-11-27T20:33:33.460Z,13.43
2023-11-27T20:36:00.077Z,16.92
2023-11-27T20:38:26.994Z,17.35
2023-11-27T20:40:56.251Z,18.50
2023-11-27T20:43:25.424Z,11.00
2023-11-27T20:45:52.396Z,16.25
2023-11-27T20:48:20.095Z,17.63
2023-11-27T20:50:46.704Z,24.02
2023-11-27T20:53:13.361Z,20.23
2023-11-27T20:55:39.815Z,18.77
2023-11-27T20:58:06.337Z,21.00
2023-11-27T21:00:33.070Z,18.55
2023-11-27T21:02:59.527Z,23.38
2023-11-27T21:05:26.302Z,27.67
2023-11-27T21:07:54.093Z,21.03
2023-11-27T21:10:21.620Z,18.10
2023-11-27T21:12:49.408Z,23.05
2023-11-27T21:15:15.939Z,19.95
2023-11-27T21:17:42.540Z,18.70
2023-11-27T21:20:11.744Z,11.67
2023-11-27T21:22:39.221Z,21.50
2023-11-27T21:25:06.954Z,19.13
2023-11-27T21:27:33.451Z,16.00
2023-11-27T21:29:59.869Z,20.30
2023-11-27T21:32:26.367Z,18.50
2023-11-27T21:34:53.063Z,22.45
2023-11-27T21:37:19.583Z,24.25
2023-11-27T21:39:46.026Z,27.92
2023-11-27T21:42:12.533Z,24.10
2023-11-27T21:44:38.879Z,22.13
2023-11-27T21:47:07.332Z,17.73
2023-11-27T21:49:33.818Z,31.33
2023-11-27T21:52:00.307Z,20.65
2023-11-27T21:54:26.748Z,21.13
2023-11-27T21:56:53.233Z,29.23
2023-11-27T21:59:19.787Z,22.05
2023-11-27T22:01:46.391Z,31.48
2023-11-27T22:04:12.933Z,33.35
2023-11-27T22:06:39.819Z,27.13
2023-11-27T22:09:07.360Z,26.43
2023-11-27T22:11:33.965Z,19.25
2023-11-27T22:14:00.584Z,20.58
2023-11-27T22:16:27.727Z,20.73
2023-11-27T22:18:54.345Z,18.63
2023-11-27T22:21:20.785Z,15.27
2023-11-27T22:23:47.243Z,19.88
2023-11-27T22:26:13.756Z,18.88
2023-11-27T22:28:40.255Z,26.48
2023-11-27T22:31:06.883Z,21.23
2023-11-27T22:33:33.370Z,16.93
2023-11-27T22:35:59.928Z,27.00
2023-11-27T22:38:26.673Z,23.05
2023-11-27T22:40:54.738Z,26.95
2023-11-27T22:43:21.293Z,21.85
2023-11-27T22:45:47.713Z,21.70
2023-11-27T22:48:14.290Z,29.98
2023-11-27T22:50:40.764Z,25.90
2023-11-27T22:53:07.306Z,27.33
2023-11-27T22:55:33.729Z,29.70
2023-11-27T22:58:00.252Z,20.13
2023-11-27T23:00:27.720Z,18.40
2023-11-27T23:02:56.486Z,21.98
2023-11-27T23:05:23.154Z,17.75
2023-11-27T23:07:50.399Z,21.67
2023-11-27T23:10:17.026Z,11.93
2023-11-27T23:12:43.583Z,14.82
2023-11-27T23:15:12.359Z,22.05
2023-11-27T23:17:39.799Z,21.13
2023-11-27T23:20:06.704Z,16.00
2023-11-27T23:22:33.519Z,17.60
2023-11-27T23:24:59.974Z,19.95
2023-11-27T23:27:26.670Z,18.58
2023-11-27T23:29:53.338Z,15.20
2023-11-27T23:32:19.952Z,19.67
2023-11-27T23:34:46.601Z,20.77
2023-11-27T23:37:13.014Z,17.77
2023-11-27T23:39:39.455Z,19.55
2023-11-27T23:42:06.085Z,16.73
2023-11-27T23:44:32.506Z,16.63
2023-11-27T23:46:59.086Z,19.93
2023-11-27T23:49:27.015Z,14.02
2023-11-27T23:51:54.819Z,16.70
2023-11-27T23:54:21.555Z,17.20
2023-11-27T23:56:48.201Z,22.00
2023-11-27T23:59:14.887Z,17.67
